• Join FlightAware (Why Join?)
  • Login
  • US Flag 
11:54AM EDT


 

Airport Tracker/Info


-or-


 

Live Flight TrackerFlight Track Log ✈ N459RB ✈ 30-Jun-2013 ✈ KHDC - KPWA

Flight Track Log - Related Links

Times and Time Zones

All times are in EDT time to prevent confusion due to time zone crossing. See the N459RB flight status page for this flight to view local times or setup timezone preferences in your user account.

Time Position Orientation Groundspeed Altitude Reporting Facility
EDT Latitude Longitude Course Direction KTS MPH feet Rate Location/Type
03:56PM 30.5442 -90.4578 292° West 82 94 1,900  Level Houston Center
03:57PM 30.5508 -90.4769 292° West 80 92 2,400 840 Climbing Houston Center
03:58PM 30.5622 -90.5006 299° West 94 108 3,400 720 Climbing Houston Center
03:59PM 30.5714 -90.5208 298° West 84 97 3,800 480 Climbing Houston Center
04:00PM 30.5794 -90.5447 291° West 83 96 4,400 720 Climbing Houston Center
04:01PM 30.5908 -90.5747 294° West 83 96 5,300 720 Climbing Houston Center
04:02PM 30.6014 -90.5992 297° West 84 97 5,900 300 Climbing Houston Center
04:03PM 30.6128 -90.6283 294° West 90 104 6,000  Climbing Houston Center
04:04PM 30.6306 -90.6667 298° West 117 135 6,000  Level Houston Center
04:05PM 30.6464 -90.7056 295° West 127 146 6,000  Level Houston Center
04:06PM 30.6633 -90.7447 297° West 132 152 6,000  Level Houston Center
04:07PM 30.6833 -90.7975 294° West 141 162 6,000  Level Houston Center
04:08PM 30.7011 -90.8394 296° West 144 166 6,000  Level Houston Center
04:09PM 30.7169 -90.8811 294° West 143 165 6,000  Level Houston Center
04:10PM 30.7336 -90.9211 296° West 141 162 6,000  Level Houston Center
04:11PM 30.7519 -90.9608 298° West 140 161 6,100  Climbing Houston Center
04:12PM 30.7689 -91.0017 296° West 140 161 6,100  Level Houston Center
04:13PM 30.7892 -91.0503 296° West 140 161 6,100  Level Houston Center
04:14PM 30.8069 -91.0917 297° West 142 163 6,100  Level Houston Center
04:15PM 30.8233 -91.1292 297° West 142 163 6,100  Level Houston Center
04:16PM 30.8397 -91.1703 295° West 142 163 6,100  Level Houston Center
04:17PM 30.8608 -91.2189 297° West 141 162 6,100  Level Houston Center
04:18PM 30.8775 -91.2581 296° West 136 157 6,100  Level Houston Center
04:19PM 30.8950 -91.2989 297° West 139 160 6,100  Level Houston Center
04:20PM 30.9083 -91.3400 291° West 137 158 6,100  Level Houston Center
04:22PM 30.9322 -91.4153 290° West 136 157 6,100  Level Houston Center
04:23PM 30.9461 -91.4625 289° West 139 160 6,100  Level Houston Center
04:24PM 30.9600 -91.5072 290° West 141 162 6,100  Level Houston Center
04:25PM 30.9717 -91.5500 288° West 140 161 6,100  Level Houston Center
04:26PM 30.9831 -91.5925 287° West 137 158 6,100 -60 Level Houston Center
04:27PM 30.9944 -91.6328 288° West 136 157 6,000  Descending Houston Center
04:28PM 31.0083 -91.6775 290° West 138 159 6,100  Climbing Houston Center
04:29PM 31.0219 -91.7200 291° West 145 167 6,100  Level Houston Center
04:30PM 31.0358 -91.7672 289° West 146 168 6,100  Level Houston Center
04:31PM 31.0472 -91.8075 288° West 143 165 6,100  Level Houston Center
04:32PM 31.0608 -91.8525 289° West 139 160 6,100  Level Houston Center
04:33PM 31.0661 -91.8686 291° West 140 161 6,100  Level Houston Center
04:33PM 31.0725 -91.8975 284° West 138 159 6,100  Level Houston Center
04:34PM 31.0783 -91.9114 296° West 138 159 6,100  Level Houston Center
04:35PM 31.0919 -91.9531 291° West 139 160 6,100  Level Houston Center
04:36PM 31.1072 -92.0056 289° West 141 162 6,100  Level Houston Center
04:37PM 31.1200 -92.0497 289° West 144 166 6,100  Level Houston Center
04:38PM 31.1356 -92.0947 292° West 146 168 6,100  Level Houston Center
04:39PM 31.1478 -92.1417 287° West 151 174 6,100  Level Houston Center
04:40PM 31.1617 -92.1864 290° West 148 170 6,100  Level Houston Center
04:41PM 31.1747 -92.2300 289° West 144 166 6,100  Level Houston Center
04:42PM 31.1969 -92.2975 291° West 140 161 6,100  Level Houston Center
04:43PM 31.2061 -92.3239 292° West 141 162 6,100  Level Houston Center
04:44PM 31.2197 -92.3697 289° West 147 169 6,100  Level Houston Center
04:45PM 31.2333 -92.4144 290° West 146 168 6,100  Level Houston Center
04:46PM 31.2464 -92.4603 288° West 147 169 6,100  Level Houston Center
04:47PM 31.2592 -92.5100 287° West 148 170 6,100  Level Houston Center
04:48PM 31.2792 -92.5472 302° West 139 160 6,100  Level Houston Center
04:49PM 31.3022 -92.5867 304° West 141 162 6,100  Level Houston Center
04:50PM 31.3228 -92.6253 302° West 140 161 6,100  Level Houston Center
04:51PM 31.3478 -92.6697 303° West 138 159 6,100  Level Houston Center
04:53PM 31.3717 -92.7181 300° West 138 159 6,200  Climbing Houston Center
04:54PM 31.3906 -92.7531 302° West 137 158 6,200 -60 Level Houston Center
04:54PM 31.4078 -92.7842 303° West 137 158 6,100 -60 Descending Houston Center
04:56PM 31.4278 -92.8225 301° West 139 160 6,100  Level Houston Center
04:57PM 31.4472 -92.8586 302° West 134 154 6,100  Level Houston Center
04:58PM 31.4714 -92.9022 303° West 129 148 6,200  Climbing Houston Center
04:59PM 31.4906 -92.9389 302° West 134 154 6,100 -60 Descending Houston Center
05:00PM 31.5086 -92.9767 299° West 133 153 6,100  Level Houston Center
05:01PM 31.5289 -93.0194 299° West 139 160 6,200  Climbing Houston Center
05:02PM 31.5506 -93.0617 301° West 147 169 6,200  Level Houston Center
05:03PM 31.5694 -93.0992 301° West 138 159 6,200 -60 Level Houston Center
05:04PM 31.5908 -93.1389 302° West 134 154 6,100 -60 Descending Houston Center
05:05PM 31.6097 -93.1739 302° West 138 159 6,100  Level Houston Center
05:06PM 31.6333 -93.2161 303° West 145 167 6,100  Level Houston Center
05:07PM 31.6558 -93.2606 301° West 150 173 6,100  Level Houston Center
05:08PM 31.6739 -93.2983 299° West 142 163 6,100  Level Houston Center
05:09PM 31.6925 -93.3308 304° West 138 159 6,100  Level Houston Center
05:10PM 31.7117 -93.3711 299° West 134 154 6,100  Level Houston Center
05:11PM 31.7403 -93.4197 305° West 137 158 6,100  Level Houston Center
05:12PM 31.7611 -93.4586 302° West 139 160 6,100  Level Houston Center
05:13PM 31.7819 -93.4986 302° West 143 165 6,100  Level Houston Center
05:14PM 31.8019 -93.5381 301° West 140 161 6,100  Level Houston Center
05:15PM 31.8219 -93.5758 302° West 137 158 6,100  Level Houston Center
05:16PM 31.8464 -93.6222 302° West 140 161 6,100  Level Houston Center
05:17PM 31.8653 -93.6622 299° West 139 160 6,100  Level Houston Center
05:18PM 31.8867 -93.7014 303° West 141 162 6,100  Level Houston Center
05:19PM 31.9061 -93.7419 299° West 142 163 6,100  Level Houston Center
05:20PM 31.9278 -93.7808 303° West 143 165 6,100  Level Houston Center
05:21PM 31.9483 -93.8208 301° West 142 163 6,100  Level Houston Center
05:22PM 31.9719 -93.8675 301° West 141 162 6,100  Level Houston Center
05:23PM 31.9933 -93.9069 303° West 142 163 6,100  Level Houston Center
05:24PM 32.0069 -93.9444 293° West 142 163 6,100  Level Fort Worth Center
05:25PM 32.0311 -93.9875 304° West 140 161 6,100  Level Fort Worth Center
05:26PM 32.0489 -94.0286 297° West 141 162 6,100  Level Fort Worth Center
05:27PM 32.0708 -94.0669 304° West 141 162 6,100  Level Fort Worth Center
05:28PM 32.0886 -94.1031 300° West 138 159 6,100  Level Fort Worth Center
05:29PM 32.1083 -94.1467 298° West 144 166 6,100  Level Fort Worth Center
05:30PM 32.1281 -94.1850 301° West 141 162 6,100 -60 Level Fort Worth Center
05:33PM 32.1722 -94.2657 303° West  Level FlightAware Approximate
05:40PM 32.3079 -94.5319 301° West  Level FlightAware Approximate
05:41PM 32.3271 -94.5702 301° West  Level FlightAware Approximate
05:42PM 32.3462 -94.6085 301° West  Level FlightAware Approximate
05:43PM 32.3653 -94.6467 301° West  Level FlightAware Approximate
05:44PM 32.3843 -94.6850 301° West  Level FlightAware Approximate
05:45PM 32.4034 -94.7234 301° West  Level FlightAware Approximate
05:46PM 32.4244 -94.7600 313° West  Level FlightAware Approximate
05:47PM 32.4498 -94.7928 313° West  Level FlightAware Approximate
05:48PM 32.4751 -94.8256 312° West  Level FlightAware Approximate
05:49PM 32.5005 -94.8585 312° West  Level FlightAware Approximate
05:50PM 32.5258 -94.8913 312° West  Level FlightAware Approximate
05:50PM 32.5608 -94.9461 312° West 143 165 6,000  Level Fort Worth Center
05:51PM 32.5512 -94.9242 312° West  Level FlightAware Approximate
05:51PM 32.5867 -94.9825 310° West 154 177 6,000  Level Fort Worth Center
05:52PM 32.5765 -94.9571 312° West  Level FlightAware Approximate
05:52PM 32.6103 -95.0161 310° West 165 190 6,000  Level Fort Worth Center
05:53PM 32.6018 -94.9900 312° West  Level FlightAware Approximate
05:53PM 32.6358 -95.0500 312° West 151 174 6,000  Level Fort Worth Center
05:54PM 32.6271 -95.0230 312° West  Level FlightAware Approximate
05:54PM 32.6636 -95.0814 316° Northwest 146 168 6,000  Level Fort Worth Center
05:55PM 32.6892 -95.1153 312° West 141 162 6,000  Level Fort Worth Center
05:56PM 32.7192 -95.1542 313° West 141 162 6,000  Level Fort Worth Center
05:57PM 32.7447 -95.1881 312° West 141 162 6,000  Level Fort Worth Center
05:58PM 32.7706 -95.2219 312° West 141 162 6,000  Level Fort Worth Center
05:59PM 32.7983 -95.2558 314° West 136 157 6,000  Level Fort Worth Center
06:00PM 32.8261 -95.2947 310° West 136 157 6,000  Level Fort Worth Center
06:01PM 32.8453 -95.3289 304° West 142 163 6,100  Climbing Fort Worth Center
06:02PM 32.8731 -95.3628 314° West 142 163 6,100  Level Fort Worth Center
06:03PM 32.9008 -95.3969 314° West 135 155 6,100  Level Fort Worth Center
06:04PM 32.9347 -95.4383 314° West 141 162 6,100  Level Fort Worth Center
06:05PM 32.9625 -95.4697 317° Northwest 148 170 6,100  Level Fort Worth Center
06:06PM 32.9881 -95.5089 308° West 149 171 6,100  Level Fort Worth Center
06:07PM 33.0094 -95.5381 311° West 141 162 6,100 -60 Level Fort Worth Center
06:08PM 33.0350 -95.5722 312° West 136 157 6,000  Descending Fort Worth Center
06:09PM 33.0669 -95.6139 312° West 142 163 6,100  Climbing Fort Worth Center
06:10PM 33.0944 -95.6481 314° West 147 169 6,000  Descending Fort Worth Center
06:11PM 33.1158 -95.6797 309° West 147 169 6,100  Climbing Fort Worth Center
06:12PM 33.1456 -95.7214 310° West 147 169 6,100  Level Fort Worth Center
06:13PM 33.1733 -95.7581 312° West 147 169 6,100  Level Fort Worth Center
06:14PM 33.2008 -95.7897 316° Northwest 141 162 6,200  Climbing Fort Worth Center
06:15PM 33.2261 -95.8192 316° Northwest 136 157 6,100 -60 Descending Fort Worth Center
06:16PM 33.2619 -95.8483 326° Northwest 136 157 6,100  Level Fort Worth Center
06:17PM 33.2958 -95.8725 329° Northwest 136 157 6,100  Level Fort Worth Center
06:18PM 33.3253 -95.8969 325° Northwest 136 157 6,100 -60 Level Fort Worth Center
06:19PM 33.3589 -95.9189 331° Northwest 136 157 6,000  Descending Fort Worth Center
06:20PM 33.3864 -95.9456 321° Northwest 136 157 6,100  Climbing Fort Worth Center
06:21PM 33.4242 -95.9725 329° Northwest 136 157 6,100  Level Fort Worth Center
06:22PM 33.4536 -95.9944 328° Northwest 136 157 6,100  Level Fort Worth Center
06:23PM 33.4894 -96.0211 328° Northwest 136 157 6,100  Level Fort Worth Center
06:24PM 33.5211 -96.0481 325° Northwest 141 162 6,100  Level Fort Worth Center
06:25PM 33.5528 -96.0725 327° Northwest 141 162 6,100 -60 Level Fort Worth Center
06:26PM 33.5842 -96.0994 324° Northwest 136 157 6,000  Descending Fort Worth Center
06:27PM 33.6158 -96.1214 330° Northwest 136 157 6,100  Climbing Fort Worth Center
06:28PM 33.6494 -96.1458 329° Northwest 136 157 6,100  Level Fort Worth Center
06:29PM 33.6811 -96.1728 325° Northwest 136 157 6,100 -60 Level Fort Worth Center
06:30PM 33.7106 -96.1950 328° Northwest 136 157 6,000  Descending Fort Worth Center
06:31PM 33.7442 -96.2194 329° Northwest 136 157 6,100  Climbing Fort Worth Center
06:32PM 33.7778 -96.2464 326° Northwest 136 157 6,000 -60 Descending Fort Worth Center
06:33PM 33.8114 -96.2736 326° Northwest 141 162 6,000  Level Fort Worth Center
06:34PM 33.8450 -96.3006 326° Northwest 141 162 6,100  Climbing Fort Worth Center
06:35PM 33.8786 -96.3253 329° Northwest 141 162 6,100 -60 Level Fort Worth Center
06:36PM 33.9100 -96.3497 327° Northwest 146 168 6,000  Descending Fort Worth Center
06:37PM 33.9353 -96.3669 331° Northwest 146 168 6,100  Climbing Fort Worth Center
06:38PM 33.9689 -96.3942 326° Northwest 140 161 6,100 -60 Level Fort Worth Center
06:39PM 34.0089 -96.4289 324° Northwest 145 167 6,000  Descending Fort Worth Center
06:40PM 34.0403 -96.4511 330° Northwest 145 167 6,100  Climbing Fort Worth Center
06:41PM 34.0739 -96.4783 326° Northwest 145 167 6,100  Level Fort Worth Center
06:42PM 34.1053 -96.5081 322° Northwest 150 173 6,100  Level Fort Worth Center
06:43PM 34.1369 -96.5303 330° Northwest 150 173 6,100  Level Fort Worth Center
06:44PM 34.1706 -96.5575 326° Northwest 150 173 6,100  Level Fort Worth Center
06:45PM 34.2019 -96.5847 324° Northwest 150 173 6,100  Level Fort Worth Center
06:46PM 34.2356 -96.6072 331° Northwest 150 173 6,100  Level Fort Worth Center
06:48PM 34.2818 -96.6438 327° Northwest  Level FlightAware Approximate
06:48PM 34.3006 -96.6594 327° Northwest 150 173 6,100  Level Fort Worth Center
06:49PM 34.3339 -96.6867 326° Northwest 144 166 6,100 -60 Level Fort Worth Center
06:50PM 34.3656 -96.7117 327° Northwest 144 166 6,000  Descending Fort Worth Center
06:51PM 34.3969 -96.7364 327° Northwest 144 166 6,100  Climbing Fort Worth Center
06:52PM 34.4306 -96.7639 326° Northwest 144 166 6,100  Level Fort Worth Center
06:53PM 34.4639 -96.7889 328° Northwest 144 166 6,100  Level Fort Worth Center
06:54PM 34.4933 -96.8164 322° Northwest 144 166 6,100  Level Fort Worth Center
06:55PM 34.5267 -96.8414 328° Northwest 144 166 6,100  Level Fort Worth Center
06:56PM 34.5603 -96.8664 329° Northwest 144 166 6,100  Level Fort Worth Center
06:57PM 34.5936 -96.8914 328° Northwest 144 166 6,100  Level Fort Worth Center
06:58PM 34.6231 -96.9189 322° Northwest 144 166 6,100  Level Fort Worth Center
06:59PM 34.6586 -96.9439 330° Northwest 144 166 6,100  Level Fort Worth Center
07:00PM 34.6900 -96.9692 326° Northwest 144 166 6,100  Level Fort Worth Center
07:01PM 34.7214 -96.9942 327° Northwest 144 166 6,100  Level Fort Worth Center
07:02PM 34.7633 -97.0369 320° Northwest 141 162 6,100  Level Fort Worth Center
07:03PM 34.7800 -97.0494 328° Northwest 141 162 6,100 -120 Level Fort Worth Center
07:04PM 34.8217 -97.0747 334° Northwest 144 166 6,000  Descending Fort Worth Center
07:05PM 34.8553 -97.1022 326° Northwest 144 166 6,100  Climbing Fort Worth Center
07:06PM 34.8844 -97.1300 322° Northwest 144 166 6,100  Level Fort Worth Center
07:07PM 34.9178 -97.1553 328° Northwest 143 165 6,100  Level Fort Worth Center
07:08PM 34.9556 -97.1831 329° Northwest 149 171 6,100  Level Fort Worth Center
07:09PM 34.9869 -97.2058 329° Northwest 149 171 6,100  Level Fort Worth Center
07:10PM 35.0244 -97.2208 342° North 142 163 6,100  Level Fort Worth Center
07:11PM 35.0558 -97.2461 327° Northwest 140 161 6,100  Level Fort Worth Center
07:12PM 35.0828 -97.2817 313° West 143 165 6,100  Level Fort Worth Center
07:13PM 35.1142 -97.3197 315° West 142 163 6,100  Level Fort Worth Center
07:14PM 35.1414 -97.3525 315° West 141 162 6,100 -240 Level Fort Worth Center
07:15PM 35.1706 -97.3856 317° Northwest 147 169 5,700 -300 Descending Fort Worth Center
07:16PM 35.1978 -97.4161 317° Northwest 143 165 5,500 -300 Descending Fort Worth Center
07:17PM 35.2247 -97.4542 311° West 143 165 5,200 -300 Descending Fort Worth Center
07:18PM 35.2561 -97.4950 313° West 147 169 5,000 -300 Descending Fort Worth Center
07:19PM 35.2894 -97.5231 326° Northwest 147 169 4,700 -360 Descending Fort Worth Center
07:20PM 35.3311 -97.5306 352° North 143 165 4,300 -300 Descending Fort Worth Center
07:21PM 35.3708 -97.5383 351° North 140 161 4,100 -180 Descending Fort Worth Center
07:22PM 35.4083 -97.5408 357° North 137 158 4,000 -360 Descending Fort Worth Center
07:23PM 35.4417 -97.5717 323° Northwest 161 185 3,400 -720 Descending Fort Worth Center
07:24PM 35.4728 -97.6072 317° Northwest 155 178 2,600 -600 Descending Fort Worth Center
07:25PM 35.4894 -97.6456 298° West 96 110 2,300 -540 Descending Fort Worth Center
07:26PM 35.5122 -97.6481 355° North 74 85 1,600 -720 Descending Fort Worth Center
07:28PM 35.5333 -97.6333 North  Level FlightAware Approximate
07:35PM 35.5342 -97.6471 North  Level Estimated